createdAt,value
2022-08-25T00:01:38.654Z,43.60
2022-08-25T00:04:11.053Z,43.66
2022-08-25T00:06:42.204Z,43.53
2022-08-25T00:09:09.880Z,43.40
2022-08-25T00:11:38.769Z,44.31
2022-08-25T00:14:13.132Z,44.33
2022-08-25T00:16:39.896Z,44.24
2022-08-25T00:19:11.155Z,44.42
2022-08-25T00:21:38.368Z,44.73
2022-08-25T00:24:05.222Z,44.31
2022-08-25T00:26:32.405Z,44.57
2022-08-25T00:29:01.808Z,44.94
2022-08-25T00:31:38.413Z,44.62
2022-08-25T00:34:08.634Z,44.68
2022-08-25T00:36:35.719Z,45.14
2022-08-25T00:39:02.373Z,44.73
2022-08-25T00:41:29.117Z,44.11
2022-08-25T00:44:01.861Z,44.45
2022-08-25T00:46:32.072Z,43.94
2022-08-25T00:49:28.000Z,44.29
2022-08-25T00:52:14.591Z,44.17
2022-08-25T00:54:48.413Z,44.13
2022-08-25T00:57:17.530Z,43.88
2022-08-25T00:59:46.006Z,44.44
2022-08-25T01:02:14.687Z,44.03
2022-08-25T01:04:48.664Z,44.03
2022-08-25T01:07:17.984Z,44.62
2022-08-25T01:09:46.480Z,44.54
2022-08-25T01:12:13.386Z,45.04
2022-08-25T01:14:40.092Z,44.80
2022-08-25T01:17:06.719Z,44.85
2022-08-25T01:19:36.184Z,45.67
2022-08-25T01:22:03.047Z,45.60
2022-08-25T01:24:37.711Z,45.62
2022-08-25T01:27:05.819Z,45.99
2022-08-25T01:29:33.074Z,46.17
2022-08-25T01:32:02.612Z,46.19
2022-08-25T01:34:31.811Z,45.98
2022-08-25T01:36:59.464Z,46.29
2022-08-25T01:39:28.408Z,46.25
2022-08-25T01:42:07.289Z,46.48
2022-08-25T01:44:36.972Z,46.90
2022-08-25T01:47:05.044Z,47.15
2022-08-25T01:49:32.671Z,46.60
2022-08-25T01:52:16.038Z,47.41
2022-08-25T01:54:42.790Z,47.01
2022-08-25T01:57:09.567Z,47.10
2022-08-25T01:59:36.212Z,47.15
2022-08-25T02:02:04.845Z,48.02
2022-08-25T02:04:33.038Z,47.54
2022-08-25T02:07:02.841Z,47.82
2022-08-25T02:09:29.516Z,47.54
2022-08-25T02:11:56.945Z,47.94
2022-08-25T02:14:24.050Z,47.96
2022-08-25T02:16:52.803Z,48.40
2022-08-25T02:19:20.542Z,48.19
2022-08-25T02:21:47.571Z,48.20
2022-08-25T02:24:14.620Z,48.41
2022-08-25T02:26:41.546Z,48.64
2022-08-25T02:29:09.323Z,49.01
2022-08-25T02:31:36.241Z,48.94
2022-08-25T02:34:03.701Z,49.25
2022-08-25T02:36:32.284Z,49.16
2022-08-25T02:38:59.517Z,49.58
2022-08-25T02:41:30.976Z,49.46
2022-08-25T02:43:58.719Z,49.94
2022-08-25T02:46:25.494Z,49.55
2022-08-25T02:48:53.401Z,49.82
2022-08-25T02:51:22.586Z,49.97
2022-08-25T02:53:49.950Z,50.08
2022-08-25T02:56:18.418Z,50.51
2022-08-25T02:58:46.096Z,50.02
2022-08-25T03:01:13.561Z,50.38
2022-08-25T03:03:43.456Z,50.11
2022-08-25T03:06:12.715Z,50.15
2022-08-25T03:08:39.649Z,50.13
2022-08-25T03:11:06.954Z,50.69
2022-08-25T03:13:33.810Z,50.60
2022-08-25T03:16:01.637Z,50.46
2022-08-25T03:18:30.333Z,51.12
2022-08-25T03:20:57.788Z,50.82
2022-08-25T03:23:24.898Z,50.69
2022-08-25T03:26:10.257Z,51.13
2022-08-25T03:28:36.936Z,51.06
2022-08-25T03:31:03.661Z,51.20
2022-08-25T03:33:31.019Z,51.00
2022-08-25T03:35:57.989Z,51.09
2022-08-25T03:38:25.443Z,51.61
2022-08-25T03:40:52.997Z,51.52
2022-08-25T03:43:20.407Z,52.15
2022-08-25T03:45:47.986Z,51.52
2022-08-25T03:48:16.437Z,51.51
2022-08-25T03:50:52.210Z,51.92
2022-08-25T03:53:19.950Z,51.77
2022-08-25T03:55:46.873Z,51.62
2022-08-25T03:58:13.561Z,51.61
2022-08-25T04:00:40.842Z,51.90
2022-08-25T04:03:07.874Z,51.95
2022-08-25T04:05:35.408Z,52.12
2022-08-25T04:08:02.339Z,52.22
2022-08-25T04:10:29.477Z,51.87
2022-08-25T04:12:57.161Z,52.63
2022-08-25T04:15:28.490Z,52.80
2022-08-25T04:17:59.163Z,52.77
2022-08-25T04:20:26.160Z,52.96
2022-08-25T04:22:53.055Z,53.28
2022-08-25T04:25:20.274Z,52.89
2022-08-25T04:27:47.043Z,52.89
2022-08-25T04:30:14.750Z,53.01
2022-08-25T04:32:41.389Z,53.13
2022-08-25T04:35:09.274Z,53.69
2022-08-25T04:37:36.029Z,54.03
2022-08-25T04:40:03.304Z,53.65
2022-08-25T04:42:30.058Z,54.20
2022-08-25T04:44:57.051Z,53.82
2022-08-25T04:47:23.954Z,53.95
2022-08-25T04:49:51.005Z,54.07
2022-08-25T04:52:17.671Z,54.50
2022-08-25T04:54:45.094Z,54.87
2022-08-25T04:57:11.771Z,54.55
2022-08-25T04:59:38.797Z,54.60
2022-08-25T05:02:06.811Z,55.24
2022-08-25T05:04:35.628Z,55.30
2022-08-25T05:07:02.895Z,55.46
2022-08-25T05:09:32.410Z,55.14
2022-08-25T05:12:00.729Z,55.32
2022-08-25T05:14:27.495Z,55.12
2022-08-25T05:16:57.686Z,55.17
2022-08-25T05:19:25.435Z,55.58
2022-08-25T05:22:09.769Z,55.63
2022-08-25T05:24:36.671Z,55.46
2022-08-25T05:27:04.143Z,55.34
2022-08-25T05:29:31.016Z,55.17
2022-08-25T05:31:57.736Z,55.06
2022-08-25T05:34:25.476Z,55.36
2022-08-25T05:36:52.186Z,55.24
2022-08-25T05:39:19.032Z,54.93
2022-08-25T05:41:45.711Z,55.32
2022-08-25T05:44:12.974Z,55.32
2022-08-25T05:46:39.785Z,55.62
2022-08-25T05:49:06.739Z,55.21
2022-08-25T05:51:34.189Z,55.44
2022-08-25T05:54:00.912Z,55.39
2022-08-25T05:56:27.597Z,55.20
2022-08-25T05:58:54.267Z,55.81
2022-08-25T06:01:45.576Z,55.46
2022-08-25T06:04:13.404Z,55.16
2022-08-25T06:06:40.765Z,55.05
2022-08-25T06:09:09.475Z,55.33
2022-08-25T06:11:38.314Z,55.60
2022-08-25T06:14:05.016Z,55.18
2022-08-25T06:16:31.984Z,54.87
2022-08-25T06:18:58.693Z,54.96
2022-08-25T06:21:25.588Z,55.17
2022-08-25T06:23:52.782Z,55.07
2022-08-25T06:26:21.079Z,55.24
2022-08-25T06:28:51.845Z,54.67
2022-08-25T06:31:19.252Z,54.69
2022-08-25T06:33:46.516Z,54.79
2022-08-25T06:36:13.252Z,55.07
2022-08-25T06:38:40.115Z,54.94
2022-08-25T06:41:07.843Z,54.32
2022-08-25T06:43:35.116Z,53.99
2022-08-25T06:46:36.257Z,54.09
2022-08-25T06:49:07.033Z,54.36
2022-08-25T06:51:36.360Z,54.10
2022-08-25T06:54:04.299Z,54.34
2022-08-25T06:56:30.978Z,53.82
2022-08-25T06:58:57.900Z,54.14
2022-08-25T07:01:27.301Z,54.17
2022-08-25T07:03:59.750Z,54.35
2022-08-25T07:06:28.032Z,54.16
2022-08-25T07:08:54.912Z,53.98
2022-08-25T07:11:21.653Z,54.03
2022-08-25T07:13:49.103Z,53.99
2022-08-25T07:16:18.126Z,53.81
2022-08-25T07:18:45.481Z,53.92
2022-08-25T07:21:13.201Z,53.97
2022-08-25T07:23:41.236Z,54.35
2022-08-25T07:26:36.893Z,53.74
2022-08-25T07:29:12.916Z,53.68
2022-08-25T07:31:39.994Z,53.81
2022-08-25T07:34:26.305Z,53.45
2022-08-25T07:36:54.675Z,53.61
2022-08-25T07:39:22.811Z,53.33
2022-08-25T07:41:52.404Z,52.95
2022-08-25T07:44:21.381Z,53.39
2022-08-25T07:46:48.614Z,53.31
2022-08-25T07:49:17.967Z,52.86
2022-08-25T07:52:04.205Z,53.23
2022-08-25T07:54:34.583Z,53.02
2022-08-25T07:57:05.636Z,52.51
2022-08-25T07:59:39.388Z,52.81
2022-08-25T08:02:18.000Z,52.34
2022-08-25T08:04:48.717Z,52.14
2022-08-25T08:07:43.186Z,52.17
2022-08-25T08:10:42.376Z,52.06
2022-08-25T08:13:00.649Z,51.77
2022-08-25T08:15:29.913Z,52.21
2022-08-25T08:17:58.126Z,52.13
2022-08-25T08:20:25.943Z,51.86
2022-08-25T08:22:52.621Z,51.69
2022-08-25T08:25:23.083Z,51.26
2022-08-25T08:27:54.965Z,51.55
2022-08-25T08:30:22.218Z,51.36
2022-08-25T08:33:09.186Z,50.79
2022-08-25T08:35:36.684Z,50.75
2022-08-25T08:38:03.626Z,50.41
2022-08-25T08:40:32.080Z,50.13
2022-08-25T08:43:14.615Z,50.24
2022-08-25T08:45:54.050Z,49.89
2022-08-25T08:48:23.731Z,49.67
2022-08-25T08:51:23.205Z,49.96
2022-08-25T08:53:57.181Z,49.44
2022-08-25T08:56:30.990Z,48.71
2022-08-25T08:59:13.176Z,48.90
2022-08-25T09:01:54.094Z,48.27
2022-08-25T09:04:27.365Z,47.85
2022-08-25T09:06:55.732Z,47.55
2022-08-25T09:09:28.918Z,47.55
2022-08-25T09:12:01.819Z,47.85
2022-08-25T09:14:53.940Z,47.65
2022-08-25T09:17:58.953Z,47.17
2022-08-25T09:21:07.179Z,47.00
2022-08-25T09:24:00.213Z,46.22
2022-08-25T09:26:36.235Z,45.87
2022-08-25T09:29:16.660Z,45.61
2022-08-25T09:31:43.723Z,45.19
2022-08-25T09:34:18.512Z,45.00
2022-08-25T09:36:48.693Z,44.04
2022-08-25T09:39:15.632Z,43.70
2022-08-25T09:41:53.229Z,43.43
2022-08-25T09:44:24.537Z,43.67
2022-08-25T09:47:02.270Z,43.50
2022-08-25T09:49:36.268Z,43.25
2022-08-25T09:52:22.938Z,42.47
2022-08-25T09:54:53.731Z,42.25
2022-08-25T09:57:44.694Z,41.61
2022-08-25T10:00:15.185Z,41.24
2022-08-25T10:02:44.123Z,40.56
2022-08-25T10:05:24.292Z,40.17
2022-08-25T10:07:57.587Z,39.91
2022-08-25T10:10:35.801Z,39.17
2022-08-25T10:13:03.656Z,38.55
2022-08-25T10:15:36.289Z,38.37
2022-08-25T10:18:15.464Z,37.52
2022-08-25T10:20:44.699Z,37.51
2022-08-25T10:23:14.327Z,37.41
2022-08-25T10:25:57.931Z,36.95
2022-08-25T10:31:51.969Z,36.37
2022-08-25T10:34:31.595Z,36.56
2022-08-25T10:37:21.114Z,36.02
2022-08-25T10:40:06.622Z,35.80
2022-08-25T10:42:35.066Z,35.48
2022-08-25T10:45:22.812Z,35.30
2022-08-25T10:48:02.325Z,35.03
2022-08-25T10:50:34.031Z,35.17
2022-08-25T10:53:35.873Z,34.73
2022-08-25T10:56:12.301Z,34.02
2022-08-25T10:59:07.516Z,34.27
2022-08-25T11:02:03.982Z,34.04
2022-08-25T11:04:36.747Z,33.96
2022-08-25T11:07:18.316Z,34.48
2022-08-25T11:09:49.233Z,33.90
2022-08-25T11:12:22.330Z,33.98
2022-08-25T11:15:00.594Z,33.91
2022-08-25T11:17:50.378Z,34.02
2022-08-25T11:21:15.341Z,33.60
2022-08-25T11:23:57.535Z,33.13
2022-08-25T11:26:36.594Z,32.66
2022-08-25T11:29:18.215Z,32.39
2022-08-25T11:31:52.859Z,32.87
2022-08-25T11:34:20.803Z,32.70
2022-08-25T11:36:54.085Z,32.65
2022-08-25T11:39:58.252Z,31.83
2022-08-25T11:42:49.004Z,31.86
2022-08-25T11:45:24.878Z,31.92
2022-08-25T11:48:01.068Z,31.80
2022-08-25T11:51:12.805Z,31.89
2022-08-25T11:53:42.256Z,31.83
2022-08-25T11:56:31.775Z,31.88
2022-08-25T11:58:59.419Z,31.48
2022-08-25T12:01:35.727Z,31.29
2022-08-25T12:04:34.015Z,31.98
2022-08-25T12:07:07.529Z,31.35
2022-08-25T12:09:54.662Z,31.53
2022-08-25T12:12:41.499Z,31.76
2022-08-25T12:15:32.809Z,31.96
2022-08-25T12:18:13.907Z,31.87
2022-08-25T12:20:54.480Z,31.61
2022-08-25T12:23:43.022Z,31.03
2022-08-25T12:26:41.535Z,31.95
2022-08-25T12:29:17.142Z,31.15
2022-08-25T12:31:57.168Z,31.80
2022-08-25T12:34:50.779Z,31.20
2022-08-25T12:37:19.628Z,30.91
2022-08-25T12:39:50.404Z,30.82
2022-08-25T12:42:38.412Z,30.45
2022-08-25T12:45:14.196Z,30.31
2022-08-25T12:47:44.939Z,30.88
2022-08-25T12:50:39.459Z,31.13
2022-08-25T12:53:11.592Z,31.17
2022-08-25T12:55:42.285Z,30.63
2022-08-25T12:58:09.178Z,30.98
2022-08-25T13:00:53.141Z,30.22
2022-08-25T13:03:23.175Z,30.35
2022-08-25T13:06:09.232Z,30.31
2022-08-25T13:08:54.627Z,30.15
2022-08-25T13:11:48.126Z,30.13
2022-08-25T13:14:43.964Z,29.82
2022-08-25T13:17:11.900Z,30.12
2022-08-25T13:19:38.685Z,29.70
2022-08-25T13:22:17.759Z,29.97
2022-08-25T13:24:47.322Z,29.96
2022-08-25T13:27:25.071Z,29.94
2022-08-25T13:29:59.135Z,29.60
2022-08-25T13:32:36.742Z,29.12
2022-08-25T13:35:17.809Z,29.16
2022-08-25T13:37:47.083Z,28.55
2022-08-25T13:40:24.591Z,28.68
2022-08-25T13:42:59.619Z,28.99
2022-08-25T13:45:31.658Z,28.40
2022-08-25T13:47:58.974Z,28.40
2022-08-25T13:50:26.522Z,28.29
2022-08-25T13:52:55.181Z,28.94
2022-08-25T13:55:51.117Z,28.80
2022-08-25T13:58:24.228Z,28.93
2022-08-25T14:01:22.903Z,28.57
2022-08-25T14:03:54.822Z,28.29
2022-08-25T14:06:26.914Z,28.53
2022-08-25T14:08:59.829Z,28.49
2022-08-25T14:11:56.828Z,29.05
2022-08-25T14:14:23.480Z,29.44
2022-08-25T14:17:00.793Z,29.01
2022-08-25T14:19:30.028Z,29.26
2022-08-25T14:21:59.993Z,28.95
2022-08-25T14:24:27.284Z,28.69
2022-08-25T14:26:54.925Z,28.70
2022-08-25T14:29:22.296Z,28.75
2022-08-25T14:31:49.284Z,28.49
2022-08-25T14:34:22.699Z,28.39
2022-08-25T14:36:51.276Z,28.34
2022-08-25T14:39:18.264Z,28.63
2022-08-25T14:41:52.513Z,28.43
2022-08-25T14:44:20.548Z,28.83
2022-08-25T14:46:55.004Z,28.82
2022-08-25T14:49:29.866Z,29.49
2022-08-25T14:51:57.621Z,29.02
2022-08-25T14:54:27.050Z,29.21
2022-08-25T14:56:53.772Z,28.77
2022-08-25T14:59:20.631Z,28.24
2022-08-25T15:01:47.566Z,29.25
2022-08-25T15:04:22.606Z,28.67
2022-08-25T15:06:51.908Z,28.72
2022-08-25T15:09:18.659Z,28.07
2022-08-25T15:11:51.911Z,28.05
2022-08-25T15:14:28.517Z,28.40
2022-08-25T15:16:59.886Z,27.87
2022-08-25T15:19:27.610Z,27.70
2022-08-25T15:21:58.272Z,27.72
2022-08-25T15:24:27.545Z,27.32
2022-08-25T15:26:57.185Z,27.69
2022-08-25T15:29:26.350Z,27.67
2022-08-25T15:31:53.537Z,27.40
2022-08-25T15:34:20.297Z,27.36
2022-08-25T15:36:47.482Z,27.62
2022-08-25T15:39:14.875Z,27.35
2022-08-25T15:41:46.891Z,27.09
2022-08-25T15:44:16.203Z,27.91
2022-08-25T15:46:46.936Z,27.38
2022-08-25T15:49:13.926Z,27.31
2022-08-25T15:51:47.600Z,28.22
2022-08-25T15:54:15.087Z,27.44
2022-08-25T15:56:41.795Z,27.87
2022-08-25T15:59:10.077Z,27.89
2022-08-25T16:01:37.244Z,27.33
2022-08-25T16:04:04.079Z,27.77
2022-08-25T16:06:32.076Z,28.52
2022-08-25T16:08:59.101Z,28.96
2022-08-25T16:11:28.972Z,29.40
2022-08-25T16:13:57.919Z,29.65
2022-08-25T16:16:27.126Z,29.89
2022-08-25T16:18:57.212Z,30.23
2022-08-25T16:21:29.087Z,29.68
2022-08-25T16:24:00.332Z,29.36
2022-08-25T16:26:30.744Z,28.79
2022-08-25T16:28:57.481Z,29.88
2022-08-25T16:31:24.292Z,28.76
2022-08-25T16:33:53.557Z,29.72
2022-08-25T16:36:27.084Z,29.52
2022-08-25T16:38:54.598Z,29.35
2022-08-25T16:41:24.841Z,28.82
2022-08-25T16:43:53.219Z,29.05
2022-08-25T16:46:21.305Z,28.19
2022-08-25T16:48:48.677Z,28.19
2022-08-25T16:51:19.307Z,29.47
2022-08-25T16:54:08.301Z,30.06
2022-08-25T16:56:36.302Z,29.66
2022-08-25T16:59:04.841Z,29.06
2022-08-25T17:01:36.403Z,28.21
2022-08-25T17:04:03.995Z,28.12
2022-08-25T17:06:34.338Z,28.15
2022-08-25T17:09:01.229Z,27.52
2022-08-25T17:11:30.400Z,27.80
2022-08-25T17:13:59.856Z,27.88
2022-08-25T17:16:30.185Z,27.67
2022-08-25T17:18:59.675Z,28.78
2022-08-25T17:21:30.700Z,28.79
2022-08-25T17:23:57.989Z,28.18
2022-08-25T17:26:27.765Z,28.28
2022-08-25T17:28:56.532Z,28.38
2022-08-25T17:31:24.187Z,29.14
2022-08-25T17:33:52.596Z,29.16
2022-08-25T17:36:19.761Z,28.63
2022-08-25T17:38:54.449Z,28.94
2022-08-25T17:41:24.166Z,29.30
2022-08-25T17:43:51.020Z,29.02
2022-08-25T17:46:17.913Z,29.47
2022-08-25T17:48:46.298Z,29.66
2022-08-25T17:51:13.363Z,30.82
2022-08-25T17:53:46.902Z,30.73
2022-08-25T17:56:17.601Z,31.64
2022-08-25T17:58:45.539Z,32.11
2022-08-25T18:01:24.322Z,32.33
2022-08-25T18:03:51.823Z,32.00
2022-08-25T18:06:20.282Z,32.11
2022-08-25T18:08:51.218Z,32.93
2022-08-25T18:11:21.801Z,32.63
2022-08-25T18:13:51.244Z,32.90
2022-08-25T18:16:20.725Z,33.88
2022-08-25T18:18:51.935Z,33.45
2022-08-25T18:24:07.207Z,34.21
2022-08-25T18:26:35.434Z,34.08
2022-08-25T18:32:14.045Z,33.89
2022-08-25T18:34:40.804Z,33.86
2022-08-25T18:37:26.085Z,34.10
2022-08-25T18:40:11.419Z,34.48
2022-08-25T18:42:38.619Z,34.31
2022-08-25T18:45:07.851Z,34.53
2022-08-25T18:47:41.506Z,34.37
2022-08-25T18:50:08.609Z,34.93
2022-08-25T18:52:37.930Z,34.83
2022-08-25T18:55:05.242Z,34.69
2022-08-25T18:57:32.288Z,35.39
2022-08-25T18:59:59.216Z,35.12
2022-08-25T19:02:26.558Z,35.70
2022-08-25T19:04:53.273Z,35.33
2022-08-25T19:07:20.044Z,36.00
2022-08-25T19:09:46.849Z,35.61
2022-08-25T19:12:22.499Z,35.91
2022-08-25T19:14:49.648Z,35.43
2022-08-25T19:17:17.227Z,36.39
2022-08-25T19:19:44.787Z,36.41
2022-08-25T19:22:38.081Z,36.45
2022-08-25T19:24:59.030Z,36.84
2022-08-25T19:27:26.228Z,37.36
2022-08-25T19:29:53.130Z,37.21
2022-08-25T19:32:20.278Z,37.67
2022-08-25T19:34:51.341Z,37.48
2022-08-25T19:37:28.830Z,37.25
2022-08-25T19:39:57.449Z,37.85
2022-08-25T19:42:37.049Z,38.08
2022-08-25T19:45:09.937Z,38.13
2022-08-25T19:47:37.798Z,38.17
2022-08-25T19:50:06.558Z,38.26
2022-08-25T19:52:34.703Z,38.23
2022-08-25T19:55:04.162Z,38.38
2022-08-25T19:57:42.310Z,38.08
2022-08-25T20:00:20.706Z,38.43
2022-08-25T20:02:47.969Z,38.34
2022-08-25T20:05:17.103Z,38.50
2022-08-25T20:07:52.187Z,39.08
2022-08-25T20:10:20.736Z,38.69
2022-08-25T20:12:47.619Z,38.97
2022-08-25T20:15:16.545Z,38.81
2022-08-25T20:17:43.876Z,39.08
2022-08-25T20:20:14.580Z,38.89
2022-08-25T20:22:41.420Z,39.19
2022-08-25T20:25:14.976Z,39.38
2022-08-25T20:27:47.317Z,39.71
2022-08-25T20:30:20.614Z,40.04
2022-08-25T20:32:47.372Z,39.63
2022-08-25T20:35:14.847Z,40.10
2022-08-25T20:37:44.001Z,40.08
2022-08-25T20:40:13.495Z,40.11
2022-08-25T20:42:40.651Z,40.65
2022-08-25T20:45:10.780Z,40.40
2022-08-25T20:47:37.687Z,40.71
2022-08-25T20:50:06.970Z,40.75
2022-08-25T20:52:34.865Z,40.84
2022-08-25T20:55:01.637Z,41.16
2022-08-25T20:57:28.280Z,41.49
2022-08-25T20:59:55.637Z,41.69
2022-08-25T21:02:23.858Z,41.36
2022-08-25T21:04:51.257Z,41.55
2022-08-25T21:07:19.104Z,41.56
2022-08-25T21:09:46.377Z,41.47
2022-08-25T21:12:13.279Z,42.35
2022-08-25T21:14:41.866Z,42.23
2022-08-25T21:17:12.082Z,41.89
2022-08-25T21:19:39.936Z,42.51
2022-08-25T21:22:07.670Z,42.08
2022-08-25T21:24:34.693Z,42.42
2022-08-25T21:27:03.334Z,42.72
2022-08-25T21:32:53.058Z,42.93
2022-08-25T21:35:22.401Z,43.48
2022-08-25T21:37:53.244Z,43.39
2022-08-25T21:40:22.905Z,43.57
2022-08-25T21:42:49.919Z,43.66
2022-08-25T21:45:16.668Z,44.01
2022-08-25T21:47:47.732Z,44.09
2022-08-25T21:50:14.419Z,43.77
2022-08-25T21:52:41.214Z,43.93
2022-08-25T21:55:15.750Z,44.04
2022-08-25T21:57:43.343Z,44.27
2022-08-25T22:00:11.721Z,44.46
2022-08-25T22:02:38.598Z,44.57
2022-08-25T22:05:09.280Z,45.24
2022-08-25T22:07:41.688Z,44.92
2022-08-25T22:10:15.879Z,45.55
2022-08-25T22:12:44.358Z,45.41
2022-08-25T22:15:12.422Z,45.62
2022-08-25T22:17:40.543Z,45.89
2022-08-25T22:20:08.538Z,45.73
2022-08-25T22:22:35.998Z,45.96
2022-08-25T22:25:03.101Z,46.43
2022-08-25T22:27:31.846Z,46.55
2022-08-25T22:29:58.618Z,46.40
2022-08-25T22:32:25.641Z,46.92
2022-08-25T22:34:52.801Z,46.23
2022-08-25T22:37:19.680Z,46.62
2022-08-25T22:39:46.831Z,47.30
2022-08-25T22:42:14.048Z,47.24
2022-08-25T22:44:42.486Z,47.30
2022-08-25T22:47:12.541Z,47.27
2022-08-25T22:49:40.171Z,47.87
2022-08-25T22:52:07.246Z,48.06
2022-08-25T22:54:36.674Z,48.08
2022-08-25T22:57:06.723Z,48.06
2022-08-25T22:59:34.295Z,48.43
2022-08-25T23:02:01.194Z,48.21
2022-08-25T23:04:27.996Z,48.79
2022-08-25T23:06:54.845Z,49.46
2022-08-25T23:09:22.028Z,49.08
2022-08-25T23:12:05.336Z,49.58
2022-08-25T23:15:23.882Z,50.82
2022-08-25T23:17:50.737Z,51.03
2022-08-25T23:20:36.534Z,50.96
2022-08-25T23:23:11.866Z,51.74
2022-08-25T23:25:41.639Z,51.45
2022-08-25T23:28:08.376Z,51.64
2022-08-25T23:30:35.126Z,51.79
2022-08-25T23:33:05.839Z,52.21
2022-08-25T23:35:32.579Z,52.16
2022-08-25T23:37:59.310Z,52.12
2022-08-25T23:40:27.817Z,52.67
2022-08-25T23:42:54.851Z,52.55
2022-08-25T23:45:21.453Z,52.73
2022-08-25T23:47:49.623Z,52.53
2022-08-25T23:50:16.449Z,52.84
2022-08-25T23:52:43.136Z,52.53
2022-08-25T23:55:10.453Z,53.13
2022-08-25T23:57:37.102Z,53.21
